Terminal Aerodrome Forecast
Issued by NWS El Paso, TX

Home | Current Version | Previous Version | Text Only | Print | Product List | Glossary On
Versions: 1 2 3 4 5 6 7 8 9 10 11 12 13 14
000
FTUS44 KEPZ 270550
TAFELP
TAF
KELP 270550Z 2706/2806 01011KT P6SM VCSH SCT060 BKN120
     FM270900 07007KT P6SM SCT080 BKN150
     FM271800 19008KT P6SM VCTS SCT060CB SCT120 SCT250=

USA.gov is the U.S. government's official web portal to all federal, state and local government web resources and services.